createdAt,value
2023-02-09T00:01:24.678Z,17.70
2023-02-09T00:03:53.212Z,17.70
2023-02-09T00:06:24.208Z,17.70
2023-02-09T00:08:53.525Z,17.70
2023-02-09T00:11:43.392Z,17.70
2023-02-09T00:14:10.414Z,17.70
2023-02-09T00:16:38.373Z,17.80
2023-02-09T00:19:06.340Z,17.70
2023-02-09T00:21:34.255Z,17.80
2023-02-09T00:24:03.728Z,17.80
2023-02-09T00:26:31.751Z,17.70
2023-02-09T18:15:53.421Z,17.90
2023-02-09T18:18:24.168Z,17.20
2023-02-09T18:20:52.475Z,17.30
2023-02-09T18:23:22.481Z,17.40
2023-02-09T18:25:50.487Z,17.50
2023-02-09T18:28:18.465Z,17.70
2023-02-09T18:30:46.517Z,17.80
2023-02-09T18:33:17.011Z,17.90
2023-02-09T18:35:46.004Z,17.90
2023-02-09T18:38:15.732Z,18.00
2023-02-09T18:40:43.812Z,18.00
2023-02-09T18:43:14.584Z,18.00
2023-02-09T18:45:42.525Z,18.00
2023-02-09T18:48:12.153Z,18.10
2023-02-09T18:50:41.593Z,18.10
2023-02-09T18:53:11.594Z,18.10
2023-02-09T18:55:39.678Z,18.20
2023-02-09T18:58:09.257Z,18.20
2023-02-09T19:00:37.494Z,18.10
2023-02-09T19:03:05.644Z,18.20
2023-02-09T19:05:34.666Z,18.20
2023-02-09T19:08:04.263Z,18.10
2023-02-09T19:10:33.169Z,18.10
2023-02-09T19:13:02.947Z,18.10
2023-02-09T19:15:31.487Z,18.10
2023-02-09T19:17:59.725Z,18.10
2023-02-09T19:20:29.693Z,18.00
2023-02-09T19:22:58.299Z,17.90
2023-02-09T19:25:29.463Z,18.00
2023-02-09T19:27:57.451Z,18.00
2023-02-09T19:30:26.446Z,17.90
2023-02-09T19:32:55.590Z,18.00
2023-02-09T19:35:23.753Z,18.00
2023-02-09T19:37:52.652Z,17.90
2023-02-09T19:40:33.676Z,18.00
2023-02-09T19:43:03.497Z,18.00
2023-02-09T19:45:36.301Z,18.00
2023-02-09T19:48:05.368Z,18.00
2023-02-09T19:50:33.366Z,17.90
2023-02-09T19:53:02.757Z,17.90
2023-02-09T19:55:30.767Z,17.90
2023-02-09T19:57:59.164Z,17.90
2023-02-09T20:00:29.265Z,18.00
2023-02-09T20:02:57.350Z,17.90
2023-02-09T20:05:25.271Z,17.90
2023-02-09T20:07:54.436Z,17.90
2023-02-09T20:10:23.830Z,18.00
2023-02-09T20:12:52.013Z,17.90
2023-02-09T20:15:20.093Z,18.00
2023-02-09T20:17:49.361Z,17.90
2023-02-09T20:20:17.786Z,17.90
2023-02-09T20:22:45.700Z,17.90
2023-02-09T20:25:14.734Z,17.90
2023-02-09T20:27:42.625Z,17.90
2023-02-09T20:30:11.684Z,17.90
2023-02-09T20:32:39.615Z,17.80
2023-02-09T20:35:11.015Z,17.90
2023-02-09T20:37:39.247Z,17.90
2023-02-09T20:40:11.018Z,17.80
2023-02-09T20:42:56.251Z,17.90
2023-02-09T20:45:41.953Z,17.80
2023-02-09T20:48:09.916Z,17.90
2023-02-09T20:50:39.192Z,17.90
2023-02-09T20:53:07.153Z,17.90
2023-02-09T20:55:35.061Z,17.90
2023-02-09T20:58:03.091Z,18.00
2023-02-09T21:00:31.142Z,18.00
2023-02-09T21:02:59.249Z,18.00
2023-02-09T21:05:27.187Z,18.10
2023-02-09T21:07:56.491Z,18.10
2023-02-09T21:10:24.451Z,18.20
2023-02-09T21:12:52.441Z,18.20
2023-02-09T21:15:20.496Z,18.20
2023-02-09T21:17:49.028Z,18.20
2023-02-09T21:20:17.554Z,18.20
2023-02-09T21:22:45.513Z,18.00
2023-02-09T21:25:14.808Z,17.90
2023-02-09T21:27:42.742Z,17.90
2023-02-09T21:30:11.784Z,17.90
2023-02-09T21:32:40.054Z,17.90
2023-02-09T21:35:10.268Z,17.80
2023-02-09T21:37:39.130Z,17.90
2023-02-09T21:40:07.520Z,17.90
2023-02-09T21:42:39.262Z,17.90
2023-02-09T21:45:08.085Z,17.90
2023-02-09T21:47:37.907Z,17.90
2023-02-09T21:50:08.127Z,17.90
2023-02-09T21:52:36.418Z,17.90
2023-02-09T21:55:05.469Z,18.00
2023-02-09T21:57:33.393Z,18.00
2023-02-09T22:00:05.331Z,18.00
2023-02-09T22:02:33.250Z,17.90
2023-02-09T22:05:01.150Z,18.00
2023-02-09T22:07:29.138Z,18.00
2023-02-09T22:09:57.080Z,18.00
2023-02-09T22:12:24.988Z,17.90
2023-02-09T22:14:52.825Z,18.00
2023-02-09T22:17:22.144Z,17.90
2023-02-09T22:19:50.042Z,18.00
2023-02-09T22:22:17.933Z,18.00
2023-02-09T22:24:45.817Z,18.00
2023-02-09T22:27:13.690Z,18.00
2023-02-09T22:29:41.613Z,18.00
2023-02-09T22:32:09.505Z,18.00
2023-02-09T22:34:38.955Z,18.00
2023-02-09T22:37:06.925Z,17.90
2023-02-09T22:39:35.041Z,17.90
2023-02-09T22:42:02.922Z,17.90
2023-02-09T22:44:31.010Z,17.90
2023-02-09T22:46:58.870Z,17.90
2023-02-09T22:49:26.757Z,18.00
2023-02-09T22:51:55.968Z,17.90
2023-02-09T22:54:23.896Z,17.90
2023-02-09T22:56:51.927Z,18.00
2023-02-09T22:59:19.934Z,18.00
2023-02-09T23:01:49.154Z,18.00
2023-02-09T23:04:17.134Z,18.00
2023-02-09T23:06:45.194Z,18.00
2023-02-09T23:09:15.079Z,18.00
2023-02-09T23:11:44.123Z,18.10
2023-02-09T23:14:12.601Z,18.10
2023-02-09T23:16:41.564Z,18.20
2023-02-09T23:19:12.818Z,18.10
2023-02-09T23:21:42.796Z,18.20
2023-02-09T23:24:12.328Z,18.10
2023-02-09T23:26:41.748Z,18.10
2023-02-09T23:29:13.210Z,18.10
2023-02-09T23:31:41.414Z,18.10
2023-02-09T23:34:13.115Z,18.10
2023-02-09T23:36:41.016Z,18.10
2023-02-09T23:39:08.910Z,18.10
2023-02-09T23:41:36.855Z,18.10
2023-02-09T23:44:06.515Z,18.10
2023-02-09T23:46:36.708Z,18.10
2023-02-09T23:49:04.866Z,18.10
2023-02-09T23:51:35.056Z,18.10
2023-02-09T23:54:04.676Z,18.10
2023-02-09T23:56:36.899Z,18.10
2023-02-09T23:59:08.145Z,18.00
